EDW372 LSZH-LCLK
Flight info
| Callsign | EDW372 |
|---|---|
| Flight time | N/A |
| Altitude | 29000 |
| Route | DEGES Z2 TUNUM/N0481F370 Z204 GEDSO DCT VEKEN DCT NISVA N131 RODIP UN131 KULAR UT39 TOMBI M855 DASNI M601 BONEK |
| Aircraft | A343/H-SDE2E3FGHIJ4J5M1RWXY/LB1D1 |
Departure
| Time | 2026-05-06 14:20 |
|---|---|
| Airport | Zürich Airport (LSZH) |
Arrival
| Time | N/A |
|---|---|
| Airport | Larnaca International Airport (LCLK) |
| Time | Latitude | Longitude | Altitude | Speed | Heading |
|---|---|---|---|---|---|
| 2026-05-06 13:54 | 47.45036 | 8.55857 | 1411 ft | 0 kts | 6° |
| 2026-05-06 14:06 | 47.45034 | 8.55857 | 1411 ft | 2 kts | 6° |
| 2026-05-06 14:06 | 47.45008 | 8.55851 | 1414 ft | 4 kts | 12° |
| 2026-05-06 14:07 | 47.44982 | 8.55846 | 1415 ft | 4 kts | 348° |
| 2026-05-06 14:07 | 47.44962 | 8.55858 | 1410 ft | 4 kts | 321° |
| 2026-05-06 14:07 | 47.44947 | 8.55888 | 1411 ft | 4 kts | 281° |
| 2026-05-06 14:07 | 47.44945 | 8.55913 | 1411 ft | 2 kts | 276° |
| 2026-05-06 14:08 | 47.44942 | 8.55906 | 1405 ft | 0 kts | 276° |
| 2026-05-06 14:12 | 47.44943 | 8.55901 | 1414 ft | 3 kts | 276° |
| 2026-05-06 14:12 | 47.44949 | 8.55825 | 1407 ft | 12 kts | 278° |
| 2026-05-06 14:13 | 47.44969 | 8.55680 | 1408 ft | 14 kts | 296° |
| 2026-05-06 14:13 | 47.45023 | 8.55625 | 1411 ft | 9 kts | 335° |
| 2026-05-06 14:13 | 47.45087 | 8.55583 | 1413 ft | 11 kts | 336° |
| 2026-05-06 14:13 | 47.45171 | 8.55528 | 1412 ft | 15 kts | 335° |
| 2026-05-06 14:14 | 47.45280 | 8.55453 | 1413 ft | 19 kts | 334° |
| 2026-05-06 14:14 | 47.45414 | 8.55361 | 1412 ft | 22 kts | 335° |
| 2026-05-06 14:14 | 47.45554 | 8.55264 | 1410 ft | 22 kts | 335° |
| 2026-05-06 14:14 | 47.45641 | 8.55209 | 1409 ft | 8 kts | 349° |
| 2026-05-06 14:15 | 47.45667 | 8.55230 | 1407 ft | 4 kts | 48° |
| 2026-05-06 14:15 | 47.45678 | 8.55266 | 1408 ft | 4 kts | 78° |
| 2026-05-06 14:15 | 47.45675 | 8.55342 | 1412 ft | 12 kts | 96° |
| 2026-05-06 14:15 | 47.45667 | 8.55464 | 1408 ft | 11 kts | 96° |
| 2026-05-06 14:16 | 47.45659 | 8.55567 | 1407 ft | 9 kts | 96° |
| 2026-05-06 14:16 | 47.45653 | 8.55648 | 1409 ft | 7 kts | 96° |
| 2026-05-06 14:16 | 47.45649 | 8.55710 | 1415 ft | 5 kts | 96° |
| 2026-05-06 14:16 | 47.45645 | 8.55761 | 1418 ft | 5 kts | 96° |
| 2026-05-06 14:17 | 47.45641 | 8.55825 | 1416 ft | 8 kts | 96° |
| 2026-05-06 14:17 | 47.45633 | 8.55938 | 1421 ft | 16 kts | 96° |
| 2026-05-06 14:17 | 47.45617 | 8.56154 | 1422 ft | 26 kts | 95° |
| 2026-05-06 14:17 | 47.45596 | 8.56454 | 1419 ft | 31 kts | 96° |
| 2026-05-06 14:18 | 47.45574 | 8.56753 | 1426 ft | 25 kts | 96° |
| 2026-05-06 14:18 | 47.45567 | 8.56863 | 1424 ft | 1 kts | 96° |
| 2026-05-06 14:18 | 47.45563 | 8.56920 | 1424 ft | 11 kts | 96° |
| 2026-05-06 14:18 | 47.45575 | 8.56992 | 1428 ft | 2 kts | 44° |
| 2026-05-06 14:19 | 47.45595 | 8.57009 | 1427 ft | 3 kts | 23° |
| 2026-05-06 14:19 | 47.45652 | 8.57020 | 1429 ft | 6 kts | 344° |
| 2026-05-06 14:19 | 47.45665 | 8.56983 | 1428 ft | 6 kts | 284° |
| 2026-05-06 14:19 | 47.45670 | 8.56890 | 1427 ft | 18 kts | 276° |
| 2026-05-06 14:20 | 47.45705 | 8.56387 | 1425 ft | 81 kts | 276° |
| 2026-05-06 14:20 | 47.45782 | 8.55267 | 1407 ft | 136 kts | 276° |
| 2026-05-06 14:20 | 47.45902 | 8.53667 | 1541 ft | 168 kts | 274° |
| 2026-05-06 14:20 | 47.46038 | 8.51958 | 2307 ft | 169 kts | 275° |
| 2026-05-06 14:21 | 47.46160 | 8.50206 | 3124 ft | 174 kts | 272° |
| 2026-05-06 14:21 | 47.46206 | 8.48316 | 3625 ft | 193 kts | 261° |
| 2026-05-06 14:21 | 47.45637 | 8.46496 | 4277 ft | 204 kts | 227° |
| 2026-05-06 14:21 | 47.44599 | 8.45116 | 5225 ft | 203 kts | 225° |
| 2026-05-06 14:22 | 47.43759 | 8.43466 | 6175 ft | 203 kts | 245° |
| 2026-05-06 14:22 | 47.43295 | 8.41493 | 7049 ft | 204 kts | 254° |
| 2026-05-06 14:22 | 47.42915 | 8.39457 | 7902 ft | 206 kts | 252° |
| 2026-05-06 14:22 | 47.42300 | 8.37546 | 8724 ft | 209 kts | 233° |
| 2026-05-06 14:23 | 47.41182 | 8.36173 | 9576 ft | 214 kts | 209° |
| 2026-05-06 14:23 | 47.39704 | 8.35706 | 10296 ft | 225 kts | 182° |
| 2026-05-06 14:23 | 47.38171 | 8.36383 | 10977 ft | 241 kts | 153° |
| 2026-05-06 14:23 | 47.36984 | 8.38256 | 11548 ft | 264 kts | 120° |
| 2026-05-06 14:24 | 47.36666 | 8.40929 | 12193 ft | 279 kts | 84° |
| 2026-05-06 14:24 | 47.37414 | 8.43578 | 12926 ft | 285 kts | 50° |
| 2026-05-06 14:24 | 47.39010 | 8.45267 | 13674 ft | 285 kts | 17° |
| 2026-05-06 14:24 | 47.40904 | 8.46150 | 14330 ft | 289 kts | 20° |
| 2026-05-06 14:25 | 47.42530 | 8.47909 | 14993 ft | 295 kts | 50° |
| 2026-05-06 14:25 | 47.43802 | 8.50371 | 15398 ft | 310 kts | 56° |
| 2026-05-06 14:25 | 47.45045 | 8.53086 | 15745 ft | 326 kts | 61° |
| 2026-05-06 14:25 | 47.45819 | 8.56273 | 16079 ft | 336 kts | 86° |
| 2026-05-06 14:26 | 47.45986 | 8.59719 | 16450 ft | 348 kts | 91° |
| 2026-05-06 14:26 | 47.46081 | 8.63360 | 16819 ft | 361 kts | 90° |
| 2026-05-06 14:26 | 47.46192 | 8.67114 | 17339 ft | 370 kts | 90° |
| 2026-05-06 14:26 | 47.46324 | 8.70937 | 17993 ft | 374 kts | 90° |
| 2026-05-06 14:27 | 47.46461 | 8.74790 | 18623 ft | 378 kts | 90° |
| 2026-05-06 14:27 | 47.46599 | 8.78682 | 19161 ft | 382 kts | 90° |
| 2026-05-06 14:27 | 47.46584 | 8.82631 | 19636 ft | 385 kts | 100° |
| 2026-05-06 14:27 | 47.46129 | 8.86509 | 20202 ft | 385 kts | 105° |
| 2026-05-06 14:28 | 47.45559 | 8.90383 | 20799 ft | 387 kts | 107° |
| 2026-05-06 14:28 | 47.44999 | 8.94236 | 21380 ft | 389 kts | 106° |
| 2026-05-06 14:28 | 47.44434 | 8.98164 | 21959 ft | 391 kts | 107° |
| 2026-05-06 14:28 | 47.43868 | 9.02107 | 22508 ft | 394 kts | 106° |
| 2026-05-06 14:29 | 47.43300 | 9.06077 | 23045 ft | 396 kts | 107° |
| 2026-05-06 14:29 | 47.42720 | 9.10076 | 23546 ft | 399 kts | 107° |
| 2026-05-06 14:29 | 47.42137 | 9.14087 | 23922 ft | 403 kts | 107° |
| 2026-05-06 14:29 | 47.41671 | 9.18209 | 24296 ft | 412 kts | 100° |
| 2026-05-06 14:30 | 47.41680 | 9.22514 | 24497 ft | 428 kts | 88° |
| 2026-05-06 14:30 | 47.42160 | 9.26898 | 24810 ft | 437 kts | 83° |
| 2026-05-06 14:30 | 47.42787 | 9.31253 | 25202 ft | 440 kts | 82° |
| 2026-05-06 14:30 | 47.43483 | 9.35649 | 25657 ft | 442 kts | 81° |
| 2026-05-06 14:31 | 47.44201 | 9.40094 | 26025 ft | 446 kts | 81° |
| 2026-05-06 14:31 | 47.44914 | 9.44573 | 26347 ft | 450 kts | 82° |